createdAt,value
2017-05-15T00:01:36.228Z,82.10
2017-05-15T00:04:04.542Z,82.10
2017-05-15T00:06:33.635Z,82.10
2017-05-15T00:09:02.699Z,82.20
2017-05-15T00:11:31.174Z,82.20
2017-05-15T00:13:59.485Z,82.20
2017-05-15T00:16:28.543Z,81.50
2017-05-15T00:18:56.851Z,82.30
2017-05-15T00:21:25.162Z,82.40
2017-05-15T00:23:53.473Z,82.50
2017-05-15T00:26:21.790Z,82.40
2017-05-15T00:28:50.613Z,82.40
2017-05-15T00:31:18.917Z,82.40
2017-05-15T00:33:47.230Z,82.10
2017-05-15T00:36:15.540Z,82.10
2017-05-15T00:38:43.854Z,82.00
2017-05-15T00:41:12.206Z,81.70
2017-05-15T00:43:40.511Z,81.90
2017-05-15T00:46:09.225Z,81.80
2017-05-15T00:48:37.543Z,82.00
2017-05-15T00:51:06.137Z,82.00
2017-05-15T00:53:34.462Z,82.00
2017-05-15T00:56:02.778Z,82.00
2017-05-15T00:58:31.089Z,81.90
2017-05-15T01:00:59.401Z,82.00
2017-05-15T01:03:27.729Z,81.90
2017-05-15T01:05:56.037Z,82.70
2017-05-15T01:08:24.845Z,82.00
2017-05-15T01:10:53.162Z,81.70
2017-05-15T01:13:21.473Z,81.80
2017-05-15T01:15:49.988Z,81.70
2017-05-15T01:18:18.301Z,81.70
2017-05-15T01:20:46.615Z,81.90
2017-05-15T01:23:14.925Z,81.90
2017-05-15T01:25:43.233Z,81.90
2017-05-15T01:28:11.546Z,81.90
2017-05-15T01:30:39.855Z,82.80
2017-05-15T01:33:08.168Z,82.40
2017-05-15T01:35:36.478Z,82.50
2017-05-15T01:38:04.789Z,82.40
2017-05-15T01:40:33.102Z,82.50
2017-05-15T01:43:01.409Z,82.40
2017-05-15T01:45:29.761Z,82.40
2017-05-15T01:47:58.092Z,82.40
2017-05-15T01:50:26.450Z,82.30
2017-05-15T01:52:55.774Z,82.30
2017-05-15T01:55:24.309Z,82.20
2017-05-15T01:57:52.617Z,82.20
2017-05-15T02:00:20.926Z,82.10
2017-05-15T02:02:49.981Z,82.10
2017-05-15T02:05:18.294Z,82.30
2017-05-15T02:07:46.978Z,83.00
2017-05-15T02:10:15.293Z,82.20
2017-05-15T02:12:43.602Z,82.30
2017-05-15T02:15:11.914Z,82.30
2017-05-15T02:17:40.226Z,82.40
2017-05-15T02:20:09.284Z,82.50
2017-05-15T02:22:37.598Z,82.50
2017-05-15T02:25:05.916Z,82.50
2017-05-15T02:27:34.226Z,82.40
2017-05-15T02:30:03.282Z,82.50
2017-05-15T02:32:31.600Z,82.40
2017-05-15T02:35:00.653Z,82.40
2017-05-15T02:37:28.971Z,82.40
2017-05-15T02:39:58.028Z,82.50
2017-05-15T02:42:26.341Z,82.50
2017-05-15T02:44:54.657Z,82.70
2017-05-15T02:47:22.967Z,82.80
2017-05-15T02:49:51.277Z,82.80
2017-05-15T02:52:20.333Z,83.10
2017-05-15T02:54:49.006Z,82.90
2017-05-15T02:57:17.322Z,82.80
2017-05-15T02:59:45.654Z,82.80
2017-05-15T03:02:13.974Z,82.80
2017-05-15T03:04:42.290Z,82.80
2017-05-15T03:07:10.753Z,83.00
2017-05-15T03:09:39.810Z,83.60
2017-05-15T03:12:08.127Z,83.10
2017-05-15T03:14:36.436Z,83.10
2017-05-15T03:17:04.752Z,83.20
2017-05-15T03:19:33.067Z,83.30
2017-05-15T03:22:02.127Z,83.30
2017-05-15T03:24:30.849Z,83.30
2017-05-15T03:26:59.903Z,83.30
2017-05-15T03:29:28.260Z,83.30
2017-05-15T03:31:56.577Z,83.30
2017-05-15T03:34:24.898Z,83.20
2017-05-15T03:36:53.215Z,83.10
2017-05-15T03:39:24.086Z,83.20
2017-05-15T03:41:52.874Z,83.20
2017-05-15T03:44:21.193Z,83.20
2017-05-15T03:46:49.511Z,83.30
2017-05-15T03:49:17.817Z,83.20
2017-05-15T03:51:46.946Z,83.30
2017-05-15T03:54:15.349Z,83.30
2017-05-15T03:56:43.668Z,84.00
2017-05-15T03:59:11.988Z,83.30
2017-05-15T04:01:40.305Z,83.30
2017-05-15T04:04:08.622Z,83.30
2017-05-15T04:06:36.998Z,83.40
2017-05-15T04:09:06.070Z,83.30
2017-05-15T04:11:34.437Z,83.20
2017-05-15T04:14:02.753Z,83.40
2017-05-15T04:16:31.823Z,83.30
2017-05-15T04:19:00.142Z,83.30
2017-05-15T04:21:29.050Z,83.50
2017-05-15T04:23:57.409Z,83.60
2017-05-15T04:26:25.732Z,83.60
2017-05-15T04:28:54.047Z,83.50
2017-05-15T04:31:23.107Z,83.60
2017-05-15T04:33:51.486Z,83.60
2017-05-15T04:36:19.814Z,83.60
2017-05-15T04:38:48.139Z,83.70
2017-05-15T04:41:16.453Z,83.60
2017-05-15T04:43:45.515Z,83.60
2017-05-15T04:46:13.838Z,83.70
2017-05-15T04:48:42.889Z,83.70
2017-05-15T04:51:11.202Z,83.80
2017-05-15T04:53:40.702Z,83.80
2017-05-15T04:56:09.993Z,83.90
2017-05-15T04:58:38.317Z,83.80
2017-05-15T05:01:06.627Z,83.90
2017-05-15T05:03:34.941Z,83.80
2017-05-15T05:06:04.005Z,83.70
2017-05-15T05:08:32.478Z,83.90
2017-05-15T05:11:04.330Z,84.00
2017-05-15T05:13:32.887Z,84.20
2017-05-15T05:16:04.751Z,84.40
2017-05-15T05:18:33.214Z,84.40
2017-05-15T05:21:21.282Z,84.40
2017-05-15T05:24:01.530Z,84.40
2017-05-15T05:26:52.415Z,84.30
2017-05-15T05:29:43.182Z,84.30
2017-05-15T05:32:23.376Z,84.30
2017-05-15T05:34:58.315Z,84.40
2017-05-15T05:37:38.531Z,84.40
2017-05-15T05:40:23.318Z,84.40
2017-05-15T05:43:04.334Z,84.30
2017-05-15T05:45:32.654Z,84.30
2017-05-15T05:48:01.022Z,84.30
2017-05-15T05:50:29.358Z,84.30
2017-05-15T05:52:59.150Z,84.40
2017-05-15T05:55:54.279Z,84.40
2017-05-15T05:58:23.440Z,84.40
2017-05-15T06:01:13.196Z,85.00
2017-05-15T06:03:53.800Z,84.40
2017-05-15T06:06:34.691Z,84.40
2017-05-15T06:09:15.021Z,84.40
2017-05-15T06:11:55.046Z,84.30
2017-05-15T06:14:35.429Z,84.20
2017-05-15T06:17:18.594Z,84.20
2017-05-15T06:19:46.646Z,84.10
2017-05-15T06:22:26.834Z,84.00
2017-05-15T06:28:03.245Z,84.00
2017-05-15T06:30:32.237Z,83.90
2017-05-15T06:33:00.561Z,83.50
2017-05-15T06:35:29.616Z,83.50
2017-05-15T06:38:09.924Z,83.70
2017-05-15T06:41:04.946Z,83.60
2017-05-15T06:43:33.264Z,83.50
2017-05-15T06:46:01.585Z,83.40
2017-05-15T06:48:29.906Z,83.20
2017-05-15T06:50:58.226Z,83.50
2017-05-15T06:53:29.421Z,82.70
2017-05-15T06:55:57.997Z,82.40
2017-05-15T06:58:26.474Z,82.30
2017-05-15T07:00:54.853Z,82.00
2017-05-15T07:03:23.174Z,81.40
2017-05-15T07:05:51.522Z,81.30
2017-05-15T07:08:19.737Z,81.00
2017-05-15T07:10:48.058Z,80.70
2017-05-15T07:13:16.373Z,80.50
2017-05-15T07:15:44.874Z,79.80
2017-05-15T07:18:13.779Z,79.60
2017-05-15T07:20:42.838Z,79.60
2017-05-15T07:23:11.205Z,78.70
2017-05-15T07:25:39.905Z,77.70
2017-05-15T07:28:08.228Z,77.00
2017-05-15T07:30:37.295Z,76.70
2017-05-15T07:33:05.610Z,76.80
2017-05-15T07:35:33.931Z,77.40
2017-05-15T07:38:02.281Z,76.80
2017-05-15T07:40:30.587Z,76.50
2017-05-15T07:42:58.902Z,74.90
2017-05-15T07:45:27.950Z,73.40
2017-05-15T07:47:56.301Z,72.90
2017-05-15T07:50:24.622Z,72.90
2017-05-15T07:52:52.936Z,72.30
2017-05-15T07:55:22.379Z,71.80
2017-05-15T07:57:50.903Z,71.40
2017-05-15T08:00:19.990Z,72.10
2017-05-15T08:02:48.516Z,71.80
2017-05-15T08:05:16.859Z,71.80
2017-05-15T08:07:45.191Z,71.40
2017-05-15T08:10:13.501Z,71.60
2017-05-15T08:12:41.853Z,71.50
2017-05-15T08:15:10.926Z,71.00
2017-05-15T08:17:39.243Z,70.40
2017-05-15T08:20:07.557Z,69.80
2017-05-15T08:22:35.866Z,68.80
2017-05-15T08:25:04.181Z,68.50
2017-05-15T08:27:32.533Z,68.80
2017-05-15T08:30:01.598Z,68.80
2017-05-15T08:32:29.985Z,68.20
2017-05-15T08:34:58.300Z,67.80
2017-05-15T08:37:27.546Z,67.00
2017-05-15T08:39:55.858Z,66.20
2017-05-15T08:42:24.200Z,66.00
2017-05-15T08:44:52.534Z,66.40
2017-05-15T08:47:23.106Z,66.00
2017-05-15T08:49:51.421Z,65.40
2017-05-15T08:52:19.738Z,65.00
2017-05-15T08:54:48.204Z,64.80
2017-05-15T08:57:17.258Z,64.30
2017-05-15T08:59:45.586Z,64.20
2017-05-15T09:02:13.899Z,64.40
2017-05-15T09:04:42.254Z,64.50
2017-05-15T09:07:10.583Z,64.40
2017-05-15T09:09:39.589Z,64.30
2017-05-15T09:12:07.898Z,64.50
2017-05-15T09:14:36.205Z,64.00
2017-05-15T09:17:04.518Z,63.40
2017-05-15T09:19:32.837Z,62.40
2017-05-15T09:22:01.274Z,61.90
2017-05-15T09:24:29.590Z,61.70
2017-05-15T09:26:57.914Z,61.50
2017-05-15T09:29:26.228Z,60.90
2017-05-15T09:31:55.613Z,61.00
2017-05-15T09:34:23.937Z,61.30
2017-05-15T09:36:52.270Z,61.50
2017-05-15T09:39:20.591Z,61.70
2017-05-15T09:41:48.909Z,61.80
2017-05-15T09:44:17.218Z,61.80
2017-05-15T09:46:46.284Z,61.80
2017-05-15T09:49:14.607Z,62.00
2017-05-15T09:51:43.011Z,61.90
2017-05-15T09:54:12.527Z,61.30
2017-05-15T09:56:40.837Z,61.30
2017-05-15T09:59:09.157Z,61.10
2017-05-15T10:01:37.472Z,60.50
2017-05-15T10:04:05.785Z,59.70
2017-05-15T10:06:34.837Z,59.80
2017-05-15T10:09:03.182Z,59.30
2017-05-15T10:11:31.982Z,59.00
2017-05-15T10:14:00.289Z,58.80
2017-05-15T10:16:28.597Z,58.80
2017-05-15T10:18:57.650Z,59.50
2017-05-15T10:21:25.991Z,59.40
2017-05-15T10:23:55.047Z,59.60
2017-05-15T10:26:23.357Z,59.00
2017-05-15T10:28:52.758Z,58.70
2017-05-15T10:31:33.593Z,58.10
2017-05-15T10:34:02.630Z,57.70
2017-05-15T10:36:31.680Z,57.10
2017-05-15T10:38:59.990Z,56.40
2017-05-15T10:41:29.055Z,55.90
2017-05-15T10:43:57.361Z,55.60
2017-05-15T10:46:25.685Z,54.30
2017-05-15T10:48:54.742Z,53.70
2017-05-15T10:51:23.666Z,53.20
2017-05-15T10:53:52.722Z,51.60
2017-05-15T10:56:21.905Z,50.90
2017-05-15T10:58:50.214Z,51.10
2017-05-15T11:01:18.581Z,50.80
2017-05-15T11:03:46.899Z,50.10
2017-05-15T11:06:15.957Z,49.30
2017-05-15T11:08:44.473Z,48.80
2017-05-15T11:11:15.870Z,48.60
2017-05-15T11:13:44.258Z,48.80
2017-05-15T11:16:12.574Z,48.90
2017-05-15T11:18:40.895Z,48.60
2017-05-15T11:21:09.199Z,48.20
2017-05-15T11:23:37.533Z,47.30
2017-05-15T11:26:06.573Z,46.90
2017-05-15T11:28:35.026Z,46.40
2017-05-15T11:31:03.344Z,45.60
2017-05-15T11:33:31.674Z,45.60
2017-05-15T11:35:59.990Z,44.70
2017-05-15T11:38:28.522Z,44.50
2017-05-15T11:40:57.591Z,43.80
2017-05-15T11:43:25.963Z,43.50
2017-05-15T11:45:54.265Z,43.20
2017-05-15T11:48:23.314Z,43.20
2017-05-15T11:50:51.621Z,43.40
2017-05-15T11:53:19.935Z,43.20
2017-05-15T11:55:48.254Z,43.40
2017-05-15T11:58:16.928Z,43.20
2017-05-15T12:00:45.977Z,43.10
2017-05-15T12:03:15.033Z,42.10
2017-05-15T12:05:43.346Z,42.10
2017-05-15T12:08:12.399Z,41.90
2017-05-15T12:10:40.709Z,41.80
2017-05-15T12:13:09.362Z,41.00
2017-05-15T12:15:37.673Z,39.90
2017-05-15T12:18:06.003Z,39.40
2017-05-15T12:20:34.308Z,39.00
2017-05-15T12:23:02.613Z,37.80
2017-05-15T12:25:31.669Z,36.60
2017-05-15T12:28:00.026Z,36.10
2017-05-15T12:30:28.391Z,36.00
2017-05-15T12:32:56.750Z,35.90
2017-05-15T12:35:25.818Z,35.90
2017-05-15T12:37:54.419Z,35.40
2017-05-15T12:40:22.734Z,34.30
2017-05-15T12:42:51.052Z,34.00
2017-05-15T12:45:19.361Z,34.00
2017-05-15T12:47:48.430Z,33.30
2017-05-15T12:50:16.742Z,32.80
2017-05-15T12:52:45.805Z,32.80
2017-05-15T12:55:14.110Z,33.30
2017-05-15T12:57:43.570Z,33.30
2017-05-15T13:00:11.883Z,33.10
2017-05-15T13:02:40.198Z,33.30
2017-05-15T13:05:08.508Z,33.20
2017-05-15T13:07:36.818Z,33.60
2017-05-15T13:10:05.133Z,33.30
2017-05-15T13:12:34.086Z,33.30
2017-05-15T13:15:02.404Z,33.70
2017-05-15T13:17:30.707Z,33.60
2017-05-15T13:19:59.017Z,33.00
2017-05-15T13:22:27.330Z,33.60
2017-05-15T13:24:55.681Z,33.90
2017-05-15T13:27:23.989Z,33.80
2017-05-15T13:29:52.522Z,34.40
2017-05-15T13:32:20.838Z,34.20
2017-05-15T13:34:49.902Z,33.20
2017-05-15T13:37:18.213Z,33.30
2017-05-15T13:39:46.526Z,33.10
2017-05-15T13:42:14.837Z,33.00
2017-05-15T13:44:43.149Z,32.30
2017-05-15T13:47:11.454Z,32.20
2017-05-15T13:49:39.762Z,32.30
2017-05-15T13:52:08.078Z,31.90
2017-05-15T13:54:36.390Z,31.40
2017-05-15T13:57:04.713Z,31.20
2017-05-15T13:59:33.687Z,31.40
2017-05-15T14:02:02.009Z,30.90
2017-05-15T14:04:30.624Z,30.90
2017-05-15T14:06:58.941Z,30.30
2017-05-15T14:09:27.249Z,30.00
2017-05-15T14:11:56.297Z,29.60
2017-05-15T14:14:24.605Z,29.30
2017-05-15T14:16:53.655Z,29.10
2017-05-15T14:19:22.346Z,29.30
2017-05-15T14:21:51.091Z,29.30
2017-05-15T14:24:20.139Z,29.30
2017-05-15T14:26:48.492Z,29.30
2017-05-15T14:29:16.785Z,29.10
2017-05-15T14:31:45.096Z,28.90
2017-05-15T14:34:13.402Z,28.40
2017-05-15T14:36:41.711Z,28.20
2017-05-15T14:39:10.029Z,28.10
2017-05-15T14:41:38.337Z,28.00
2017-05-15T14:44:06.686Z,27.60
2017-05-15T14:46:35.053Z,27.10
2017-05-15T14:49:03.361Z,27.20
2017-05-15T14:51:32.415Z,27.30
2017-05-15T14:54:00.719Z,27.80
2017-05-15T14:56:29.033Z,27.70
2017-05-15T14:58:57.490Z,27.50
2017-05-15T15:01:26.540Z,27.20
2017-05-15T15:03:54.850Z,26.70
2017-05-15T15:06:23.163Z,26.60
2017-05-15T15:08:51.473Z,26.60
2017-05-15T15:11:19.780Z,26.60
2017-05-15T15:13:48.086Z,26.20
2017-05-15T15:16:17.665Z,26.10
2017-05-15T15:18:46.006Z,26.30
2017-05-15T15:21:14.309Z,25.90
2017-05-15T15:23:42.743Z,25.90
2017-05-15T15:26:11.353Z,26.30
2017-05-15T15:28:39.662Z,26.40
2017-05-15T15:31:08.082Z,26.30
2017-05-15T15:33:36.390Z,26.30
2017-05-15T15:36:04.750Z,26.30
2017-05-15T15:38:33.065Z,26.40
2017-05-15T15:41:01.375Z,26.20
2017-05-15T15:43:30.474Z,26.50
2017-05-15T15:45:59.519Z,26.50
2017-05-15T15:48:27.831Z,26.60
2017-05-15T15:50:56.369Z,26.60
2017-05-15T15:53:24.682Z,26.90
2017-05-15T15:55:52.985Z,26.90
2017-05-15T15:58:22.088Z,27.00
2017-05-15T16:00:51.140Z,27.30
2017-05-15T16:03:19.905Z,27.40
2017-05-15T16:05:48.219Z,27.20
2017-05-15T16:08:16.532Z,27.00
2017-05-15T16:10:46.521Z,26.90
2017-05-15T16:13:14.832Z,26.90
2017-05-15T16:15:43.141Z,26.80
2017-05-15T16:18:11.491Z,26.60
2017-05-15T16:20:39.806Z,26.30
2017-05-15T16:23:08.438Z,26.10
2017-05-15T16:25:37.479Z,26.00
2017-05-15T16:28:05.994Z,26.00
2017-05-15T16:30:37.342Z,26.00
2017-05-15T16:33:05.657Z,25.90
2017-05-15T16:35:33.974Z,25.90
2017-05-15T16:38:02.354Z,25.70
2017-05-15T16:40:30.663Z,25.70
2017-05-15T16:43:00.158Z,25.50
2017-05-15T16:45:28.461Z,25.20
2017-05-15T16:47:57.501Z,25.30
2017-05-15T16:50:26.455Z,25.80
2017-05-15T16:52:55.503Z,26.20
2017-05-15T16:55:23.814Z,26.30
2017-05-15T16:57:52.911Z,27.10
2017-05-15T17:00:22.075Z,27.80
2017-05-15T17:02:51.275Z,28.00
2017-05-15T17:05:19.658Z,28.10
2017-05-15T17:07:48.566Z,28.40
2017-05-15T17:10:16.882Z,28.90
2017-05-15T17:12:47.421Z,29.20
2017-05-15T17:15:15.862Z,29.30
2017-05-15T17:17:44.917Z,29.00
2017-05-15T17:20:13.282Z,29.50
2017-05-15T17:22:41.586Z,30.00
2017-05-15T17:25:14.110Z,29.70
2017-05-15T17:27:42.630Z,29.70
2017-05-15T17:30:10.952Z,29.90
2017-05-15T17:32:40.054Z,30.20
2017-05-15T17:35:09.114Z,30.10
2017-05-15T17:37:37.465Z,30.30
2017-05-15T17:42:26.077Z,31.00
2017-05-15T17:44:55.038Z,30.80
2017-05-15T17:47:23.350Z,30.70
2017-05-15T17:49:51.674Z,31.40
2017-05-15T17:52:19.986Z,31.70
2017-05-15T17:54:48.317Z,32.10
2017-05-15T17:57:16.637Z,32.30
2017-05-15T17:59:44.949Z,32.70
2017-05-15T18:02:14.012Z,33.10
2017-05-15T18:04:42.359Z,33.90
2017-05-15T18:07:10.675Z,34.60
2017-05-15T18:09:38.983Z,34.40
2017-05-15T18:12:07.301Z,35.00
2017-05-15T18:14:35.668Z,35.50
2017-05-15T18:17:03.985Z,35.90
2017-05-15T18:19:32.300Z,35.70
2017-05-15T18:22:01.346Z,35.70
2017-05-15T18:24:29.674Z,35.50
2017-05-15T18:26:58.731Z,35.40
2017-05-15T18:29:27.756Z,35.40
2017-05-15T18:31:56.802Z,35.90
2017-05-15T18:34:25.149Z,35.80
2017-05-15T18:36:53.612Z,36.10
2017-05-15T18:39:22.670Z,36.10
2017-05-15T18:41:50.985Z,36.30
2017-05-15T18:44:20.037Z,36.20
2017-05-15T18:46:48.359Z,36.30
2017-05-15T18:49:17.411Z,36.60
2017-05-15T18:51:46.032Z,37.20
2017-05-15T18:54:15.085Z,37.90
2017-05-15T18:56:43.471Z,37.40
2017-05-15T18:59:12.192Z,37.80
2017-05-15T19:01:40.512Z,38.20
2017-05-15T19:04:08.842Z,38.70
2017-05-15T19:06:37.373Z,39.30
2017-05-15T19:09:07.090Z,38.70
2017-05-15T19:11:35.397Z,39.30
2017-05-15T19:14:03.722Z,39.60
2017-05-15T19:16:32.041Z,39.70
2017-05-15T19:19:00.357Z,39.90
2017-05-15T19:21:29.977Z,40.60
2017-05-15T19:24:00.288Z,41.00
2017-05-15T19:26:28.602Z,41.10
2017-05-15T19:28:56.905Z,40.90
2017-05-15T19:31:25.206Z,40.90
2017-05-15T19:33:53.906Z,41.10
2017-05-15T19:36:22.215Z,41.50
2017-05-15T19:38:50.530Z,42.00
2017-05-15T19:41:18.837Z,42.30
2017-05-15T19:43:47.142Z,42.30
2017-05-15T19:46:15.454Z,42.80
2017-05-15T19:48:43.776Z,43.80
2017-05-15T19:51:12.131Z,43.50
2017-05-15T19:53:40.428Z,43.70
2017-05-15T19:56:08.781Z,44.30
2017-05-15T19:58:37.090Z,44.80
2017-05-15T20:01:06.117Z,45.10
2017-05-15T20:03:34.421Z,45.40
2017-05-15T20:06:02.731Z,45.70
2017-05-15T20:08:31.034Z,45.90
2017-05-15T20:11:01.812Z,46.20
2017-05-15T20:13:30.126Z,46.40
2017-05-15T20:15:58.434Z,46.70
2017-05-15T20:18:26.753Z,47.00
2017-05-15T20:20:55.061Z,47.20
2017-05-15T20:23:23.376Z,47.30
2017-05-15T20:25:51.694Z,47.30
2017-05-15T20:28:20.006Z,47.40
2017-05-15T20:30:49.503Z,47.90
2017-05-15T20:33:17.821Z,48.40
2017-05-15T20:35:46.126Z,48.70
2017-05-15T20:38:14.456Z,48.90
2017-05-15T20:40:43.501Z,49.10
2017-05-15T20:43:12.115Z,49.30
2017-05-15T20:45:40.428Z,49.50
2017-05-15T20:48:08.749Z,49.60
2017-05-15T20:50:37.058Z,49.90
2017-05-15T20:53:06.155Z,49.90
2017-05-15T20:55:34.615Z,50.10
2017-05-15T20:58:02.925Z,50.20
2017-05-15T21:00:31.976Z,50.40
2017-05-15T21:03:00.281Z,50.60
2017-05-15T21:05:30.193Z,50.60
2017-05-15T21:07:58.507Z,50.70
2017-05-15T21:10:27.103Z,50.50
2017-05-15T21:12:55.410Z,50.60
2017-05-15T21:15:23.717Z,50.60
2017-05-15T21:17:52.817Z,50.60
2017-05-15T21:20:21.861Z,50.50
2017-05-15T21:22:50.172Z,50.50
2017-05-15T21:25:18.479Z,50.50
2017-05-15T21:27:47.530Z,50.40
2017-05-15T21:30:17.318Z,50.50
2017-05-15T21:32:45.627Z,50.80
2017-05-15T21:35:13.934Z,51.00
2017-05-15T21:37:42.984Z,51.20
2017-05-15T21:40:11.290Z,51.10
2017-05-15T21:42:39.607Z,51.00
2017-05-15T21:45:07.930Z,51.20
2017-05-15T21:47:36.259Z,51.20
2017-05-15T21:50:04.607Z,51.30
2017-05-15T21:52:32.918Z,51.40
2017-05-15T21:55:01.227Z,51.40
2017-05-15T21:57:29.534Z,51.40
2017-05-15T21:59:58.046Z,51.40
2017-05-15T22:02:27.086Z,51.60
2017-05-15T22:04:55.393Z,51.70
2017-05-15T22:07:23.705Z,51.80
2017-05-15T22:09:52.417Z,51.90
2017-05-15T22:12:20.894Z,52.00
2017-05-15T22:14:49.198Z,52.00
2017-05-15T22:17:17.510Z,52.00
2017-05-15T22:19:46.555Z,52.30
2017-05-15T22:22:14.862Z,52.30
2017-05-15T22:24:43.176Z,52.40
2017-05-15T22:27:11.483Z,52.50
2017-05-15T22:29:40.167Z,52.50
2017-05-15T22:32:08.477Z,52.60
2017-05-15T22:34:36.787Z,52.60
2017-05-15T22:37:05.829Z,52.80
2017-05-15T22:39:34.546Z,52.70
2017-05-15T22:42:02.862Z,52.60
2017-05-15T22:44:31.172Z,52.70
2017-05-15T22:46:59.481Z,52.70
2017-05-15T22:49:27.786Z,52.70
2017-05-15T22:51:56.102Z,53.30
2017-05-15T22:54:24.415Z,52.70
2017-05-15T22:56:52.885Z,52.80
2017-05-15T22:59:21.193Z,52.80
2017-05-15T23:01:50.249Z,52.80
2017-05-15T23:04:18.593Z,52.80
2017-05-15T23:06:46.900Z,52.80
2017-05-15T23:09:15.210Z,52.80
2017-05-15T23:11:43.517Z,52.80
2017-05-15T23:14:11.822Z,52.80
2017-05-15T23:16:40.125Z,52.80
2017-05-15T23:19:08.430Z,52.90
2017-05-15T23:21:37.478Z,53.10
2017-05-15T23:24:05.961Z,53.10
2017-05-15T23:26:34.266Z,53.20
2017-05-15T23:29:02.570Z,53.30
2017-05-15T23:31:31.798Z,53.50
2017-05-15T23:34:00.104Z,53.70
2017-05-15T23:36:28.410Z,53.80
2017-05-15T23:38:57.449Z,53.80
2017-05-15T23:41:25.751Z,54.10
2017-05-15T23:43:54.057Z,54.30
2017-05-15T23:46:22.366Z,54.60
2017-05-15T23:48:50.675Z,54.80
2017-05-15T23:51:19.001Z,55.00
2017-05-15T23:53:48.101Z,55.30
2017-05-15T23:56:17.146Z,55.30
2017-05-15T23:58:46.042Z,55.40
